createdAt,value
2017-06-03T00:01:05.087Z,66.00
2017-06-03T00:03:34.419Z,66.30
2017-06-03T00:06:03.382Z,66.50
2017-06-03T00:08:32.346Z,66.00
2017-06-03T00:11:01.699Z,66.70
2017-06-03T00:13:30.680Z,66.30
2017-06-03T00:15:59.635Z,66.60
2017-06-03T00:18:28.915Z,67.10
2017-06-03T00:20:57.851Z,67.20
2017-06-03T00:23:26.803Z,66.90
2017-06-03T00:25:56.153Z,67.50
2017-06-03T00:28:25.105Z,67.70
2017-06-03T00:30:54.061Z,67.00
2017-06-03T00:33:23.349Z,66.70
2017-06-03T00:35:52.306Z,67.40
2017-06-03T00:38:21.239Z,67.40
2017-06-03T00:40:50.619Z,66.90
2017-06-03T00:43:19.607Z,66.80
2017-06-03T00:45:48.580Z,66.90
2017-06-03T00:48:17.963Z,67.50
2017-06-03T00:50:46.939Z,67.00
2017-06-03T00:53:15.874Z,67.20
2017-06-03T00:55:45.209Z,66.50
2017-06-03T00:58:14.203Z,67.00
2017-06-03T01:00:43.167Z,66.30
2017-06-03T01:03:12.570Z,66.30
2017-06-03T01:05:41.760Z,66.00
2017-06-03T01:08:10.717Z,65.80
2017-06-03T01:10:40.071Z,66.50
2017-06-03T01:13:09.015Z,66.10
2017-06-03T01:15:37.992Z,66.10
2017-06-03T01:18:07.354Z,65.70
2017-06-03T01:20:36.303Z,65.80
2017-06-03T01:23:05.239Z,66.40
2017-06-03T01:25:34.545Z,66.40
2017-06-03T01:28:03.478Z,66.80
2017-06-03T01:30:32.420Z,67.30
2017-06-03T01:33:01.868Z,67.20
2017-06-03T01:35:30.823Z,66.70
2017-06-03T01:37:59.769Z,67.50
2017-06-03T01:40:29.096Z,67.30
2017-06-03T01:42:58.047Z,67.50
2017-06-03T01:45:26.978Z,67.30
2017-06-03T01:47:56.491Z,67.20
2017-06-03T01:50:25.454Z,67.40
2017-06-03T01:52:54.449Z,67.30
2017-06-03T01:55:23.774Z,67.40
2017-06-03T01:57:52.713Z,67.50
2017-06-03T02:00:21.688Z,67.40
2017-06-03T02:02:50.672Z,67.00
2017-06-03T02:05:19.610Z,67.50
2017-06-03T02:07:48.932Z,67.60
2017-06-03T02:10:18.075Z,67.50
2017-06-03T02:12:47.011Z,67.40
2017-06-03T02:15:15.990Z,67.90
2017-06-03T02:17:44.954Z,67.30
2017-06-03T02:20:14.290Z,67.60
2017-06-03T02:22:43.244Z,68.90
2017-06-03T02:25:12.245Z,68.50
2017-06-03T02:27:41.207Z,68.00
2017-06-03T02:30:10.139Z,67.90
2017-06-03T02:32:39.559Z,67.80
2017-06-03T02:35:08.533Z,67.80
2017-06-03T02:37:37.467Z,68.50
2017-06-03T02:40:06.428Z,68.30
2017-06-03T02:42:35.375Z,67.60
2017-06-03T02:45:04.667Z,67.50
2017-06-03T02:47:33.601Z,67.80
2017-06-03T02:50:02.565Z,67.80
2017-06-03T02:52:31.516Z,66.70
2017-06-03T02:55:00.486Z,66.30
2017-06-03T02:57:29.434Z,66.60
2017-06-03T02:59:58.382Z,65.70
2017-06-03T03:02:27.684Z,66.30
2017-06-03T03:04:56.699Z,66.00
2017-06-03T03:07:25.635Z,65.20
2017-06-03T03:09:54.668Z,64.70
2017-06-03T03:12:23.627Z,64.00
2017-06-03T03:14:52.960Z,64.10
2017-06-03T03:17:21.899Z,63.50
2017-06-03T03:19:50.854Z,62.40
2017-06-03T03:22:19.812Z,62.20
2017-06-03T03:24:48.772Z,62.50
2017-06-03T03:27:18.252Z,62.30
2017-06-03T03:29:47.203Z,62.20
2017-06-03T03:32:42.928Z,62.20
2017-06-03T03:35:11.117Z,61.10
2017-06-03T03:37:39.389Z,60.50
2017-06-03T03:40:07.591Z,60.60
2017-06-03T03:42:36.529Z,61.70
2017-06-03T03:45:04.723Z,61.60
2017-06-03T03:47:32.895Z,60.50
2017-06-03T03:50:01.421Z,60.10
2017-06-03T03:52:29.615Z,60.40
2017-06-03T03:54:57.883Z,60.40
2017-06-03T03:57:26.143Z,60.10
2017-06-03T03:59:54.323Z,61.90
2017-06-03T04:02:22.838Z,60.00
2017-06-03T04:04:50.999Z,60.60
2017-06-03T04:07:19.174Z,59.70
2017-06-03T04:09:47.369Z,59.40
2017-06-03T04:12:15.614Z,59.40
2017-06-03T04:14:44.092Z,59.80
2017-06-03T04:17:12.279Z,59.60
2017-06-03T04:19:40.445Z,59.20
2017-06-03T04:22:08.623Z,59.00
2017-06-03T04:24:36.790Z,58.70
2017-06-03T04:27:05.390Z,58.10
2017-06-03T04:29:33.566Z,57.90
2017-06-03T04:32:01.747Z,56.80
2017-06-03T04:34:29.992Z,56.90
2017-06-03T04:36:58.187Z,57.10
2017-06-03T04:39:26.720Z,58.10
2017-06-03T04:41:54.885Z,56.00
2017-06-03T04:44:23.069Z,55.90
2017-06-03T04:46:51.284Z,57.50
2017-06-03T04:49:19.488Z,57.30
2017-06-03T04:51:48.853Z,56.50
2017-06-03T04:54:17.069Z,55.70
2017-06-03T04:56:46.111Z,56.60
2017-06-03T04:59:14.322Z,56.40
2017-06-03T05:01:42.519Z,57.30
2017-06-03T05:04:11.019Z,56.90
2017-06-03T05:06:39.197Z,57.20
2017-06-03T05:09:07.367Z,56.70
2017-06-03T05:11:35.655Z,56.40
2017-06-03T05:14:03.813Z,57.30
2017-06-03T05:16:32.440Z,56.30
2017-06-03T05:19:00.614Z,58.00
2017-06-03T05:21:28.822Z,56.90
2017-06-03T05:23:57.024Z,56.80
2017-06-03T05:26:25.186Z,56.90
2017-06-03T05:28:53.750Z,56.80
2017-06-03T05:31:22.769Z,57.10
2017-06-03T05:33:50.938Z,57.00
2017-06-03T05:36:19.162Z,57.30
2017-06-03T05:38:47.394Z,58.10
2017-06-03T05:41:15.955Z,56.10
2017-06-03T05:43:44.478Z,56.50
2017-06-03T05:46:12.641Z,56.70
2017-06-03T05:48:40.831Z,56.60
2017-06-03T05:51:09.004Z,57.90
2017-06-03T05:53:37.534Z,58.30
2017-06-03T05:56:05.711Z,57.80
2017-06-03T05:58:33.885Z,58.20
2017-06-03T06:01:02.081Z,56.80
2017-06-03T06:03:30.267Z,57.40
2017-06-03T06:05:58.861Z,57.90
2017-06-03T06:08:27.050Z,57.10
2017-06-03T06:10:55.217Z,57.20
2017-06-03T06:13:23.428Z,56.70
2017-06-03T06:15:51.639Z,55.90
2017-06-03T06:18:20.241Z,57.10
2017-06-03T06:20:48.466Z,57.40
2017-06-03T06:23:16.643Z,56.80
2017-06-03T06:25:44.830Z,56.50
2017-06-03T06:28:13.022Z,57.40
2017-06-03T06:30:41.221Z,58.90
2017-06-03T06:33:09.423Z,59.90
2017-06-03T06:35:37.620Z,61.60
2017-06-03T06:38:06.249Z,61.10
2017-06-03T06:40:34.445Z,64.70
2017-06-03T06:43:03.380Z,65.30
2017-06-03T06:45:31.550Z,65.30
2017-06-03T06:47:59.714Z,65.60
2017-06-03T06:50:28.448Z,68.20
2017-06-03T06:52:56.622Z,68.70
2017-06-03T06:55:24.788Z,67.30
2017-06-03T06:57:52.988Z,69.40
2017-06-03T07:00:21.188Z,69.00
2017-06-03T07:02:49.792Z,69.30
2017-06-03T07:05:18.013Z,68.00
2017-06-03T07:07:46.186Z,69.20
2017-06-03T07:10:14.395Z,69.00
2017-06-03T07:12:42.672Z,70.80
2017-06-03T07:15:11.284Z,70.60
2017-06-03T07:17:39.467Z,71.00
2017-06-03T07:20:07.642Z,69.50
2017-06-03T07:22:35.832Z,70.50
2017-06-03T07:25:04.814Z,71.20
2017-06-03T07:27:33.339Z,71.10
2017-06-03T07:30:06.724Z,70.90
2017-06-03T07:32:35.294Z,70.20
2017-06-03T07:35:03.517Z,70.30
2017-06-03T07:37:31.695Z,70.00
2017-06-03T07:39:59.926Z,67.90
2017-06-03T07:42:28.114Z,70.20
2017-06-03T07:44:56.805Z,71.00
2017-06-03T07:47:24.974Z,70.90
2017-06-03T07:49:53.143Z,71.90
2017-06-03T07:52:21.326Z,69.10
2017-06-03T07:54:49.583Z,70.30
2017-06-03T07:57:18.131Z,70.60
2017-06-03T07:59:47.115Z,70.80
2017-06-03T08:02:15.296Z,70.70
2017-06-03T08:04:43.488Z,70.40
2017-06-03T08:07:11.722Z,69.20
2017-06-03T08:09:41.083Z,69.70
2017-06-03T08:12:09.242Z,69.60
2017-06-03T08:14:37.434Z,70.60
2017-06-03T08:17:05.623Z,68.00
2017-06-03T08:19:33.795Z,69.70
2017-06-03T08:22:02.491Z,68.70
2017-06-03T08:24:30.679Z,68.30
2017-06-03T08:26:59.033Z,68.80
2017-06-03T08:29:27.243Z,69.40
2017-06-03T08:31:55.410Z,69.70
2017-06-03T08:34:23.998Z,69.20
2017-06-03T08:36:52.210Z,70.70
2017-06-03T08:39:20.394Z,71.20
2017-06-03T08:41:48.572Z,71.90
2017-06-03T08:44:16.783Z,70.20
2017-06-03T08:46:45.354Z,71.30
2017-06-03T08:49:13.533Z,70.70
2017-06-03T08:51:41.712Z,70.80
2017-06-03T08:54:09.910Z,72.80
2017-06-03T08:56:38.912Z,72.20
2017-06-03T08:59:07.432Z,72.20
2017-06-03T09:01:35.699Z,72.30
2017-06-03T09:04:03.888Z,72.80
2017-06-03T09:06:32.095Z,72.70
2017-06-03T09:09:01.067Z,72.30
2017-06-03T09:11:29.638Z,72.30
2017-06-03T09:13:57.795Z,72.20
2017-06-03T09:16:25.970Z,72.60
2017-06-03T09:18:54.151Z,72.60
2017-06-03T09:21:22.339Z,73.70
2017-06-03T09:23:50.970Z,74.30
2017-06-03T09:26:19.173Z,73.60
2017-06-03T09:28:47.378Z,73.80
2017-06-03T09:31:15.927Z,75.10
2017-06-03T09:33:44.101Z,74.30
2017-06-03T09:36:12.531Z,73.90
2017-06-03T09:38:41.491Z,75.10
2017-06-03T09:41:09.676Z,75.00
2017-06-03T09:43:38.249Z,73.40
2017-06-03T09:46:06.416Z,74.70
2017-06-03T09:48:34.626Z,74.70
2017-06-03T09:51:03.605Z,74.40
2017-06-03T09:53:31.798Z,74.40
2017-06-03T09:56:01.154Z,75.80
2017-06-03T09:58:29.330Z,75.70
2017-06-03T10:00:57.525Z,75.40
2017-06-03T10:03:26.574Z,75.20
2017-06-03T10:05:54.768Z,74.60
2017-06-03T10:08:23.341Z,74.60
2017-06-03T10:10:51.527Z,74.70
2017-06-03T10:13:19.740Z,73.80
2017-06-03T10:15:47.936Z,74.30
2017-06-03T10:18:16.111Z,73.30
2017-06-03T10:20:44.640Z,72.20
2017-06-03T10:23:12.846Z,71.70
2017-06-03T10:25:41.039Z,72.30
2017-06-03T10:28:09.241Z,73.30
2017-06-03T10:30:37.448Z,71.80
2017-06-03T10:33:06.807Z,72.60
2017-06-03T10:35:34.980Z,72.60
2017-06-03T10:38:03.163Z,73.40
2017-06-03T10:40:31.371Z,73.60
2017-06-03T10:42:59.582Z,74.50
2017-06-03T10:45:28.339Z,74.20
2017-06-03T10:47:57.283Z,73.90
2017-06-03T10:50:25.475Z,73.90
2017-06-03T10:52:53.785Z,73.50
2017-06-03T10:55:21.954Z,73.30
2017-06-03T10:57:51.317Z,74.80
2017-06-03T11:00:19.475Z,74.80
2017-06-03T11:02:47.738Z,75.30
2017-06-03T11:05:16.037Z,74.50
2017-06-03T11:07:44.223Z,73.70
2017-06-03T11:10:12.807Z,74.90
2017-06-03T11:12:40.961Z,75.10
2017-06-03T11:15:09.176Z,74.60
2017-06-03T11:17:38.122Z,73.80
2017-06-03T11:20:06.296Z,73.70
2017-06-03T11:22:34.887Z,74.40
2017-06-03T11:25:03.183Z,75.40
2017-06-03T11:27:31.406Z,73.70
2017-06-03T11:29:59.784Z,72.40
2017-06-03T11:32:28.005Z,72.70
2017-06-03T11:34:56.609Z,71.90
2017-06-03T11:37:25.560Z,73.20
2017-06-03T11:39:53.752Z,73.10
2017-06-03T11:42:21.971Z,72.10
2017-06-03T11:44:50.168Z,73.00
2017-06-03T11:47:18.770Z,73.20
2017-06-03T11:49:46.966Z,74.20
2017-06-03T11:52:15.934Z,74.80
2017-06-03T11:54:44.127Z,74.80
2017-06-03T11:57:12.294Z,74.00
2017-06-03T11:59:40.885Z,74.80
2017-06-03T12:02:09.114Z,75.80
2017-06-03T12:04:37.294Z,75.10
2017-06-03T12:07:05.504Z,74.30
2017-06-03T12:09:34.477Z,73.20
2017-06-03T12:12:03.049Z,73.10
2017-06-03T12:14:31.263Z,74.40
2017-06-03T12:17:00.196Z,75.10
2017-06-03T12:19:28.418Z,75.00
2017-06-03T12:21:57.357Z,75.40
2017-06-03T12:24:25.911Z,75.40
2017-06-03T12:26:54.137Z,74.50
2017-06-03T12:29:22.364Z,74.30
2017-06-03T12:31:50.608Z,73.80
2017-06-03T12:34:18.814Z,73.00
2017-06-03T12:36:47.528Z,74.10
2017-06-03T12:39:15.668Z,72.60
2017-06-03T12:41:43.859Z,73.00
2017-06-03T12:44:12.055Z,73.00
2017-06-03T12:46:40.242Z,71.30
2017-06-03T12:49:08.809Z,71.40
2017-06-03T12:51:37.087Z,71.50
2017-06-03T12:54:05.261Z,72.90
2017-06-03T12:56:33.462Z,70.00
2017-06-03T12:59:01.635Z,69.40
2017-06-03T13:01:29.843Z,68.90
2017-06-03T13:03:58.070Z,68.70
2017-06-03T13:06:26.309Z,68.30
2017-06-03T13:08:54.953Z,66.30
2017-06-03T13:11:23.917Z,66.60
2017-06-03T13:13:52.089Z,66.50
2017-06-03T13:16:20.327Z,65.70
2017-06-03T13:18:48.534Z,67.10
2017-06-03T13:21:17.138Z,67.80
2017-06-03T13:23:45.372Z,67.00
2017-06-03T13:26:13.561Z,68.50
2017-06-03T13:28:41.781Z,67.50
2017-06-03T13:31:10.732Z,68.00
2017-06-03T13:33:39.312Z,68.00
2017-06-03T13:36:07.518Z,65.90
2017-06-03T13:38:36.489Z,66.10
2017-06-03T13:41:04.795Z,66.00
2017-06-03T13:43:33.023Z,65.80
2017-06-03T13:46:01.565Z,64.40
2017-06-03T13:48:29.787Z,66.20
2017-06-03T13:50:57.959Z,64.50
2017-06-03T13:53:26.164Z,63.20
2017-06-03T13:55:55.178Z,64.50
2017-06-03T13:58:23.792Z,64.40
2017-06-03T14:00:51.959Z,63.80
2017-06-03T14:03:20.148Z,64.10
2017-06-03T14:05:48.354Z,63.70
2017-06-03T14:08:17.322Z,64.30
2017-06-03T14:10:45.898Z,64.20
2017-06-03T14:13:14.122Z,63.30
2017-06-03T14:15:42.329Z,61.60
2017-06-03T14:18:12.705Z,61.40
2017-06-03T14:20:40.882Z,60.50
2017-06-03T14:23:09.420Z,60.80
2017-06-03T14:25:37.581Z,61.30
2017-06-03T14:28:05.773Z,63.60
2017-06-03T14:30:34.874Z,63.90
2017-06-03T14:33:03.737Z,64.30
2017-06-03T14:35:32.516Z,63.40
2017-06-03T14:38:00.735Z,64.40
2017-06-03T14:40:28.937Z,64.90
2017-06-03T14:42:57.096Z,64.10
2017-06-03T14:45:26.034Z,62.70
2017-06-03T14:47:54.549Z,62.80
2017-06-03T14:50:22.735Z,62.70
2017-06-03T14:52:51.684Z,63.80
2017-06-03T14:55:19.868Z,63.80
2017-06-03T14:57:48.049Z,63.60
2017-06-03T15:00:16.620Z,62.80
2017-06-03T15:02:44.787Z,62.70
2017-06-03T15:05:12.977Z,63.40
2017-06-03T15:07:41.219Z,63.60
2017-06-03T15:10:09.403Z,64.80
2017-06-03T15:12:37.964Z,63.90
2017-06-03T15:15:06.155Z,64.20
2017-06-03T15:17:34.347Z,64.60
2017-06-03T15:20:02.542Z,64.30
2017-06-03T15:22:30.726Z,64.60
2017-06-03T15:25:00.102Z,63.60
2017-06-03T15:27:28.288Z,63.60
2017-06-03T15:29:56.497Z,62.70
2017-06-03T15:32:24.652Z,63.10
2017-06-03T15:34:53.598Z,62.70
2017-06-03T15:37:22.187Z,62.50
2017-06-03T15:39:50.365Z,62.20
2017-06-03T15:42:18.574Z,62.50
2017-06-03T15:44:47.572Z,62.70
2017-06-03T15:47:15.751Z,62.60
2017-06-03T15:49:44.344Z,62.50
2017-06-03T15:52:12.773Z,61.80
2017-06-03T15:54:41.004Z,63.40
2017-06-03T15:57:09.195Z,62.70
2017-06-03T15:59:37.464Z,62.90
2017-06-03T16:02:06.088Z,62.30
2017-06-03T16:04:34.333Z,63.30
2017-06-03T16:07:02.528Z,64.40
2017-06-03T16:09:31.622Z,64.10
2017-06-03T16:11:59.887Z,64.00
2017-06-03T16:14:28.434Z,63.40
2017-06-03T16:16:56.633Z,62.50
2017-06-03T16:19:24.858Z,62.70
2017-06-03T16:21:53.076Z,63.60
2017-06-03T16:24:21.323Z,62.60
2017-06-03T16:26:49.550Z,62.20
2017-06-03T16:29:17.735Z,63.20
2017-06-03T16:31:45.934Z,61.80
2017-06-03T16:34:14.192Z,62.30
2017-06-03T16:36:43.190Z,61.50
2017-06-03T16:39:11.750Z,61.50
2017-06-03T16:41:39.947Z,61.40
2017-06-03T16:44:08.154Z,61.40
2017-06-03T16:46:36.363Z,61.50
2017-06-03T16:49:04.581Z,61.90
2017-06-03T16:51:33.144Z,61.60
2017-06-03T16:54:02.115Z,61.60
2017-06-03T16:56:30.362Z,61.60
2017-06-03T16:58:58.705Z,62.00
2017-06-03T17:01:26.891Z,61.70
2017-06-03T17:03:55.432Z,61.90
2017-06-03T17:06:23.678Z,62.70
2017-06-03T17:08:51.896Z,63.00
2017-06-03T17:11:20.138Z,63.50
2017-06-03T17:13:48.432Z,64.10
2017-06-03T17:16:17.762Z,64.70
2017-06-03T17:18:45.972Z,63.90
2017-06-03T17:21:14.192Z,63.50
2017-06-03T17:23:42.449Z,65.20
2017-06-03T17:26:10.743Z,64.70
2017-06-03T17:28:39.417Z,65.40
2017-06-03T17:31:07.650Z,66.00
2017-06-03T17:33:35.856Z,66.00
2017-06-03T17:36:04.077Z,66.50
2017-06-03T17:38:32.267Z,66.50
2017-06-03T17:41:00.945Z,65.70
2017-06-03T17:43:29.153Z,66.10
2017-06-03T17:45:57.371Z,66.50
2017-06-03T17:48:25.605Z,66.90
2017-06-03T17:50:53.806Z,67.20
2017-06-03T17:53:22.470Z,66.00
2017-06-03T17:55:50.696Z,65.40
2017-06-03T17:58:18.930Z,65.00
2017-06-03T18:00:47.167Z,64.60
2017-06-03T18:03:15.369Z,64.60
2017-06-03T18:05:44.676Z,64.50
2017-06-03T18:08:13.666Z,65.50
2017-06-03T18:10:41.858Z,65.40
2017-06-03T18:13:10.072Z,66.30
2017-06-03T18:15:38.251Z,67.10
2017-06-03T18:18:06.833Z,67.40
2017-06-03T18:20:35.041Z,68.80
2017-06-03T18:23:03.298Z,68.80
2017-06-03T18:25:31.511Z,70.10
2017-06-03T18:27:59.699Z,70.30
2017-06-03T18:30:28.235Z,71.40
2017-06-03T18:32:56.441Z,72.00
2017-06-03T18:35:24.652Z,72.30
2017-06-03T18:37:52.862Z,72.40
2017-06-03T18:40:21.095Z,72.60
2017-06-03T18:42:49.671Z,72.80
2017-06-03T18:45:17.862Z,73.80
2017-06-03T18:47:46.042Z,73.60
2017-06-03T18:50:14.291Z,73.70
2017-06-03T18:52:42.524Z,74.10
2017-06-03T18:55:11.186Z,74.50
2017-06-03T18:57:39.389Z,74.40
2017-06-03T19:00:07.627Z,74.50
2017-06-03T19:02:35.836Z,74.30
2017-06-03T19:05:04.055Z,74.30
2017-06-03T19:07:32.769Z,75.10
2017-06-03T19:10:01.026Z,75.10
2017-06-03T19:12:29.236Z,74.60
2017-06-03T19:14:58.194Z,76.20
2017-06-03T19:17:26.400Z,76.10
2017-06-03T19:19:55.795Z,76.80
2017-06-03T19:22:24.759Z,77.20
2017-06-03T19:24:52.992Z,77.10
2017-06-03T19:27:21.203Z,77.30
2017-06-03T19:29:49.376Z,77.50
2017-06-03T19:32:17.986Z,77.40
2017-06-03T19:34:46.214Z,77.70
2017-06-03T19:37:14.446Z,78.00
2017-06-03T19:39:42.668Z,78.60
2017-06-03T19:42:10.863Z,79.10
2017-06-03T19:44:39.404Z,79.60
2017-06-03T19:47:07.613Z,79.80
2017-06-03T19:49:35.796Z,80.00
2017-06-03T19:52:04.027Z,80.00
2017-06-03T19:54:32.237Z,80.30
2017-06-03T19:57:00.774Z,80.30
2017-06-03T19:59:28.985Z,80.30
2017-06-03T20:01:57.177Z,80.70
2017-06-03T20:04:25.379Z,81.00
2017-06-03T20:06:53.573Z,81.10
2017-06-03T20:09:22.136Z,81.20
2017-06-03T20:11:51.156Z,81.50
2017-06-03T20:14:19.362Z,81.50
2017-06-03T20:16:47.606Z,81.60
2017-06-03T20:19:15.811Z,82.00
2017-06-03T20:21:44.435Z,81.90
2017-06-03T20:24:12.648Z,82.30
2017-06-03T20:26:40.828Z,82.10
2017-06-03T20:29:09.046Z,82.40
2017-06-03T20:31:37.264Z,82.00
2017-06-03T20:34:06.617Z,81.80
2017-06-03T20:36:35.605Z,82.30
2017-06-03T20:39:03.813Z,82.30
2017-06-03T20:41:32.034Z,82.40
2017-06-03T20:44:00.261Z,82.40
2017-06-03T20:46:28.862Z,82.40
2017-06-03T20:48:57.049Z,82.90
2017-06-03T20:51:25.268Z,83.00
2017-06-03T20:53:53.537Z,82.70
2017-06-03T20:56:21.761Z,83.30
2017-06-03T20:58:50.337Z,83.00
2017-06-03T21:01:18.552Z,83.50
2017-06-03T21:03:46.794Z,83.40
2017-06-03T21:06:15.079Z,82.90
2017-06-03T21:08:43.285Z,83.50
2017-06-03T21:11:11.873Z,83.00
2017-06-03T21:13:40.119Z,83.40
2017-06-03T21:16:08.343Z,83.40
2017-06-03T21:18:36.648Z,83.10
2017-06-03T21:21:04.906Z,83.50
2017-06-03T21:23:33.555Z,83.30
2017-06-03T21:26:01.754Z,83.00
2017-06-03T21:28:29.969Z,83.00
2017-06-03T21:30:58.240Z,83.20
2017-06-03T21:33:26.494Z,83.50
2017-06-03T21:35:55.134Z,83.50
2017-06-03T21:38:24.096Z,83.50
2017-06-03T21:40:52.995Z,83.50
2017-06-03T21:43:21.234Z,83.50
2017-06-03T21:45:49.614Z,83.50
2017-06-03T21:48:18.324Z,83.50
2017-06-03T21:50:46.984Z,83.50
2017-06-03T21:53:15.258Z,83.50
2017-06-03T21:55:43.491Z,83.50
2017-06-03T21:58:11.714Z,83.50
2017-06-03T22:00:40.331Z,83.60
2017-06-03T22:03:08.625Z,83.60
2017-06-03T22:05:37.647Z,83.50
2017-06-03T22:08:05.900Z,83.50
2017-06-03T22:10:34.901Z,83.50
2017-06-03T22:13:03.558Z,83.50
2017-06-03T22:15:32.151Z,83.50
2017-06-03T22:18:00.365Z,83.50
2017-06-03T22:20:28.562Z,83.40
2017-06-03T22:22:56.881Z,83.50
2017-06-03T22:25:26.265Z,83.70
2017-06-03T22:27:54.459Z,83.60
2017-06-03T22:30:23.491Z,83.70
2017-06-03T22:32:51.695Z,83.70
2017-06-03T22:35:19.877Z,83.40
2017-06-03T22:37:48.559Z,83.40
2017-06-03T22:40:16.745Z,83.50
2017-06-03T22:42:45.741Z,83.40
2017-06-03T22:45:14.772Z,83.50
2017-06-03T22:47:42.986Z,83.50
2017-06-03T22:50:11.593Z,83.20
2017-06-03T22:52:40.943Z,83.40
2017-06-03T22:55:09.163Z,83.40
2017-06-03T22:57:37.410Z,83.50
2017-06-03T23:00:05.599Z,84.30
2017-06-03T23:02:33.895Z,84.00
2017-06-03T23:05:02.137Z,84.20
2017-06-03T23:07:30.358Z,83.90
2017-06-03T23:09:58.600Z,84.20
2017-06-03T23:12:26.799Z,84.30
2017-06-03T23:14:55.453Z,84.50
2017-06-03T23:17:23.651Z,84.60
2017-06-03T23:19:52.609Z,84.30
2017-06-03T23:22:21.616Z,84.40
2017-06-03T23:24:49.797Z,84.20
2017-06-03T23:27:19.199Z,84.60
2017-06-03T23:29:48.143Z,84.70
2017-06-03T23:32:16.384Z,84.70
2017-06-03T23:34:44.696Z,84.50
2017-06-03T23:37:12.911Z,84.70
2017-06-03T23:39:42.222Z,84.90
2017-06-03T23:42:11.200Z,84.90
2017-06-03T23:44:39.406Z,84.70
2017-06-03T23:47:07.657Z,85.40
2017-06-03T23:49:36.607Z,85.70
2017-06-03T23:52:05.139Z,85.60
2017-06-03T23:54:34.107Z,86.10
2017-06-03T23:57:02.306Z,86.10
2017-06-03T23:59:31.388Z,85.80
